sensor_id;sensor_type;location;lat;lon;timestamp;temperature;humidity
61979;DHT22;47938;48.176;16.414;2022-12-18T00:01:18;-0.60;77.60
61979;DHT22;47938;48.176;16.414;2022-12-18T00:03:45;-0.70;80.50
61979;DHT22;47938;48.176;16.414;2022-12-18T00:06:11;-0.90;83.60
61979;DHT22;47938;48.176;16.414;2022-12-18T00:08:36;-0.90;85.40
61979;DHT22;47938;48.176;16.414;2022-12-18T00:11:07;-1.00;86.20
61979;DHT22;47938;48.176;16.414;2022-12-18T00:13:33;-1.10;87.20
61979;DHT22;47938;48.176;16.414;2022-12-18T00:16:04;-1.10;87.00
61979;DHT22;47938;48.176;16.414;2022-12-18T00:18:30;-1.10;87.00
61979;DHT22;47938;48.176;16.414;2022-12-18T00:21:00;-1.10;86.90
61979;DHT22;47938;48.176;16.414;2022-12-18T00:23:26;-1.10;85.30
61979;DHT22;47938;48.176;16.414;2022-12-18T00:25:51;-1.10;83.70
61979;DHT22;47938;48.176;16.414;2022-12-18T00:28:17;-1.20;83.20
61979;DHT22;47938;48.176;16.414;2022-12-18T00:30:43;-1.20;83.90
61979;DHT22;47938;48.176;16.414;2022-12-18T00:33:08;-1.30;83.30
61979;DHT22;47938;48.176;16.414;2022-12-18T00:35:34;-1.30;82.90
61979;DHT22;47938;48.176;16.414;2022-12-18T00:38:00;-1.30;82.90
61979;DHT22;47938;48.176;16.414;2022-12-18T00:40:25;-1.30;84.30
61979;DHT22;47938;48.176;16.414;2022-12-18T00:42:51;-1.40;84.50
61979;DHT22;47938;48.176;16.414;2022-12-18T00:45:16;-1.40;85.20
61979;DHT22;47938;48.176;16.414;2022-12-18T00:47:42;-1.40;86.20
61979;DHT22;47938;48.176;16.414;2022-12-18T00:50:08;-1.50;86.80
61979;DHT22;47938;48.176;16.414;2022-12-18T00:52:34;-1.50;88.10
61979;DHT22;47938;48.176;16.414;2022-12-18T00:55:00;-1.50;89.10
61979;DHT22;47938;48.176;16.414;2022-12-18T00:57:25;-1.60;89.00
61979;DHT22;47938;48.176;16.414;2022-12-18T00:59:51;-1.60;89.10
61979;DHT22;47938;48.176;16.414;2022-12-18T01:02:16;-1.60;90.00
61979;DHT22;47938;48.176;16.414;2022-12-18T01:04:42;-1.70;90.30
61979;DHT22;47938;48.176;16.414;2022-12-18T01:07:07;-1.70;90.90
61979;DHT22;47938;48.176;16.414;2022-12-18T01:09:33;-1.70;91.10
61979;DHT22;47938;48.176;16.414;2022-12-18T01:11:59;-1.80;91.30
61979;DHT22;47938;48.176;16.414;2022-12-18T01:14:24;-1.80;91.60
61979;DHT22;47938;48.176;16.414;2022-12-18T01:16:50;-1.90;91.60
61979;DHT22;47938;48.176;16.414;2022-12-18T01:19:15;-1.90;91.50
61979;DHT22;47938;48.176;16.414;2022-12-18T01:21:41;-2.00;91.70
61979;DHT22;47938;48.176;16.414;2022-12-18T01:24:07;-1.90;92.00
61979;DHT22;47938;48.176;16.414;2022-12-18T01:26:32;-2.00;92.10
61979;DHT22;47938;48.176;16.414;2022-12-18T01:28:58;-2.00;92.10
61979;DHT22;47938;48.176;16.414;2022-12-18T01:31:26;-2.00;92.30
61979;DHT22;47938;48.176;16.414;2022-12-18T01:33:53;-2.10;92.30
61979;DHT22;47938;48.176;16.414;2022-12-18T01:36:21;-2.10;92.50
61979;DHT22;47938;48.176;16.414;2022-12-18T01:38:48;-2.10;92.90
61979;DHT22;47938;48.176;16.414;2022-12-18T01:41:15;-2.20;93.30
61979;DHT22;47938;48.176;16.414;2022-12-18T01:43:53;-2.20;93.70
61979;DHT22;47938;48.176;16.414;2022-12-18T01:46:21;-2.30;94.00
61979;DHT22;47938;48.176;16.414;2022-12-18T01:48:55;-2.30;94.10
61979;DHT22;47938;48.176;16.414;2022-12-18T01:51:22;-2.30;94.10
61979;DHT22;47938;48.176;16.414;2022-12-18T01:53:48;-2.30;94.20
61979;DHT22;47938;48.176;16.414;2022-12-18T01:56:16;-2.30;94.80
61979;DHT22;47938;48.176;16.414;2022-12-18T01:59:00;-2.40;95.00
61979;DHT22;47938;48.176;16.414;2022-12-18T02:01:29;-2.30;95.00
61979;DHT22;47938;48.176;16.414;2022-12-18T02:03:55;-2.40;94.90
61979;DHT22;47938;48.176;16.414;2022-12-18T02:06:34;-2.40;95.00
61979;DHT22;47938;48.176;16.414;2022-12-18T02:09:08;-2.40;95.40
61979;DHT22;47938;48.176;16.414;2022-12-18T02:22:35;-2.50;97.30
61979;DHT22;47938;48.176;16.414;2022-12-18T02:25:26;-2.50;97.30
61979;DHT22;47938;48.176;16.414;2022-12-18T02:27:54;-2.50;97.00
61979;DHT22;47938;48.176;16.414;2022-12-18T02:30:22;-2.50;96.90
61979;DHT22;47938;48.176;16.414;2022-12-18T02:32:52;-2.60;97.00
61979;DHT22;47938;48.176;16.414;2022-12-18T02:35:27;-2.60;97.30
61979;DHT22;47938;48.176;16.414;2022-12-18T02:37:54;-2.60;97.90
61979;DHT22;47938;48.176;16.414;2022-12-18T02:40:22;-2.60;97.80
61979;DHT22;47938;48.176;16.414;2022-12-18T02:42:49;-2.60;97.70
61979;DHT22;47938;48.176;16.414;2022-12-18T02:45:15;-2.70;98.00
61979;DHT22;47938;48.176;16.414;2022-12-18T02:47:43;-2.70;98.50
61979;DHT22;47938;48.176;16.414;2022-12-18T02:50:26;-2.70;98.20
61979;DHT22;47938;48.176;16.414;2022-12-18T02:53:17;-2.70;97.90
61979;DHT22;47938;48.176;16.414;2022-12-18T03:01:16;-2.80;98.90
61979;DHT22;47938;48.176;16.414;2022-12-18T03:04:01;-2.80;98.90
61979;DHT22;47938;48.176;16.414;2022-12-18T03:06:35;-2.80;99.20
61979;DHT22;47938;48.176;16.414;2022-12-18T03:09:07;-2.80;98.40
61979;DHT22;47938;48.176;16.414;2022-12-18T03:11:36;-2.80;98.90
61979;DHT22;47938;48.176;16.414;2022-12-18T03:14:03;-2.80;99.00
61979;DHT22;47938;48.176;16.414;2022-12-18T03:16:31;-2.80;98.70
61979;DHT22;47938;48.176;16.414;2022-12-18T03:19:24;-2.80;98.40
61979;DHT22;47938;48.176;16.414;2022-12-18T03:21:55;-2.90;98.80
61979;DHT22;47938;48.176;16.414;2022-12-18T03:24:21;-2.90;98.60
61979;DHT22;47938;48.176;16.414;2022-12-18T03:26:52;-2.90;98.70
61979;DHT22;47938;48.176;16.414;2022-12-18T03:29:25;-2.90;98.70
61979;DHT22;47938;48.176;16.414;2022-12-18T03:32:00;-2.90;98.90
61979;DHT22;47938;48.176;16.414;2022-12-18T03:34:30;-2.90;99.40
61979;DHT22;47938;48.176;16.414;2022-12-18T03:36:57;-2.90;99.20
61979;DHT22;47938;48.176;16.414;2022-12-18T03:39:24;-2.90;99.20
61979;DHT22;47938;48.176;16.414;2022-12-18T03:44:30;-2.90;99.00
61979;DHT22;47938;48.176;16.414;2022-12-18T03:55:32;-3.00;98.40
61979;DHT22;47938;48.176;16.414;2022-12-18T03:57:59;-3.00;98.70
61979;DHT22;47938;48.176;16.414;2022-12-18T04:00:27;-3.00;98.80
61979;DHT22;47938;48.176;16.414;2022-12-18T04:02:55;-3.00;98.90
61979;DHT22;47938;48.176;16.414;2022-12-18T04:05:23;-3.10;98.30
61979;DHT22;47938;48.176;16.414;2022-12-18T04:07:51;-3.10;98.30
61979;DHT22;47938;48.176;16.414;2022-12-18T04:10:17;-3.10;99.10
61979;DHT22;47938;48.176;16.414;2022-12-18T04:12:43;-3.10;99.20
61979;DHT22;47938;48.176;16.414;2022-12-18T04:15:09;-3.10;99.60
61979;DHT22;47938;48.176;16.414;2022-12-18T04:17:36;-3.10;99.90
61979;DHT22;47938;48.176;16.414;2022-12-18T04:20:02;-3.10;99.90
61979;DHT22;47938;48.176;16.414;2022-12-18T04:22:28;-3.10;99.90
61979;DHT22;47938;48.176;16.414;2022-12-18T04:24:53;-3.10;99.90
61979;DHT22;47938;48.176;16.414;2022-12-18T04:27:19;-3.10;99.90
61979;DHT22;47938;48.176;16.414;2022-12-18T04:29:45;-3.10;99.90
61979;DHT22;47938;48.176;16.414;2022-12-18T04:32:10;-3.20;99.90
61979;DHT22;47938;48.176;16.414;2022-12-18T04:34:36;-3.10;99.90
61979;DHT22;47938;48.176;16.414;2022-12-18T04:37:02;-3.10;99.90
61979;DHT22;47938;48.176;16.414;2022-12-18T04:39:27;-3.10;99.90
61979;DHT22;47938;48.176;16.414;2022-12-18T04:41:53;-3.10;99.90
61979;DHT22;47938;48.176;16.414;2022-12-18T04:44:19;-3.20;99.90
61979;DHT22;47938;48.176;16.414;2022-12-18T04:46:44;-3.20;99.90
61979;DHT22;47938;48.176;16.414;2022-12-18T04:49:10;-3.20;99.90
61979;DHT22;47938;48.176;16.414;2022-12-18T04:51:36;-3.20;99.90
61979;DHT22;47938;48.176;16.414;2022-12-18T04:54:01;-3.20;99.90
61979;DHT22;47938;48.176;16.414;2022-12-18T04:56:27;-3.30;99.90
61979;DHT22;47938;48.176;16.414;2022-12-18T04:58:53;-3.30;99.90
61979;DHT22;47938;48.176;16.414;2022-12-18T05:01:19;-3.20;99.90
61979;DHT22;47938;48.176;16.414;2022-12-18T05:03:45;-3.30;99.90
61979;DHT22;47938;48.176;16.414;2022-12-18T05:06:10;-3.30;99.90
61979;DHT22;47938;48.176;16.414;2022-12-18T05:08:36;-3.30;99.90
61979;DHT22;47938;48.176;16.414;2022-12-18T05:11:07;-3.30;99.90
61979;DHT22;47938;48.176;16.414;2022-12-18T05:13:33;-3.30;99.90
61979;DHT22;47938;48.176;16.414;2022-12-18T05:15:59;-3.40;99.90
61979;DHT22;47938;48.176;16.414;2022-12-18T05:18:26;-3.30;99.90
61979;DHT22;47938;48.176;16.414;2022-12-18T05:20:52;-3.30;99.90
61979;DHT22;47938;48.176;16.414;2022-12-18T05:23:18;-3.40;99.90
61979;DHT22;47938;48.176;16.414;2022-12-18T05:25:50;-3.40;99.90
61979;DHT22;47938;48.176;16.414;2022-12-18T05:28:16;-3.40;99.90
61979;DHT22;47938;48.176;16.414;2022-12-18T05:30:42;-3.40;99.90
61979;DHT22;47938;48.176;16.414;2022-12-18T05:33:07;-3.40;99.90
61979;DHT22;47938;48.176;16.414;2022-12-18T05:35:33;-3.40;99.90
61979;DHT22;47938;48.176;16.414;2022-12-18T05:37:58;-3.50;99.90
61979;DHT22;47938;48.176;16.414;2022-12-18T05:40:24;-3.50;99.90
61979;DHT22;47938;48.176;16.414;2022-12-18T05:42:50;-3.50;99.90
61979;DHT22;47938;48.176;16.414;2022-12-18T05:45:15;-3.50;99.90
61979;DHT22;47938;48.176;16.414;2022-12-18T05:47:41;-3.50;99.90
61979;DHT22;47938;48.176;16.414;2022-12-18T05:50:07;-3.60;99.90
61979;DHT22;47938;48.176;16.414;2022-12-18T05:52:33;-3.60;99.90
61979;DHT22;47938;48.176;16.414;2022-12-18T05:54:58;-3.60;99.90
61979;DHT22;47938;48.176;16.414;2022-12-18T05:57:24;-3.60;99.90
61979;DHT22;47938;48.176;16.414;2022-12-18T05:59:49;-3.50;99.90
61979;DHT22;47938;48.176;16.414;2022-12-18T06:02:15;-3.40;99.90
61979;DHT22;47938;48.176;16.414;2022-12-18T06:04:40;-3.40;99.90
61979;DHT22;47938;48.176;16.414;2022-12-18T06:07:06;-3.40;99.90
61979;DHT22;47938;48.176;16.414;2022-12-18T06:09:32;-3.40;99.90
61979;DHT22;47938;48.176;16.414;2022-12-18T06:11:57;-3.50;99.90
61979;DHT22;47938;48.176;16.414;2022-12-18T06:14:23;-3.50;99.90
61979;DHT22;47938;48.176;16.414;2022-12-18T06:16:50;-3.50;99.90
61979;DHT22;47938;48.176;16.414;2022-12-18T06:19:16;-3.60;99.90
61979;DHT22;47938;48.176;16.414;2022-12-18T06:21:42;-3.60;99.90
61979;DHT22;47938;48.176;16.414;2022-12-18T06:24:07;-3.60;99.90
61979;DHT22;47938;48.176;16.414;2022-12-18T06:26:33;-3.70;99.90
61979;DHT22;47938;48.176;16.414;2022-12-18T06:28:59;-3.70;99.90
61979;DHT22;47938;48.176;16.414;2022-12-18T06:31:25;-3.70;99.90
61979;DHT22;47938;48.176;16.414;2022-12-18T06:33:50;-3.70;99.90
61979;DHT22;47938;48.176;16.414;2022-12-18T06:36:16;-3.60;99.90
61979;DHT22;47938;48.176;16.414;2022-12-18T06:38:43;-3.60;99.90
61979;DHT22;47938;48.176;16.414;2022-12-18T06:41:11;-3.60;99.90
61979;DHT22;47938;48.176;16.414;2022-12-18T06:43:37;-3.60;99.90
61979;DHT22;47938;48.176;16.414;2022-12-18T06:46:04;-3.70;99.90
61979;DHT22;47938;48.176;16.414;2022-12-18T06:48:30;-3.70;99.90
61979;DHT22;47938;48.176;16.414;2022-12-18T06:50:56;-3.70;99.90
61979;DHT22;47938;48.176;16.414;2022-12-18T06:53:22;-3.70;99.90
61979;DHT22;47938;48.176;16.414;2022-12-18T06:55:47;-3.60;99.90
61979;DHT22;47938;48.176;16.414;2022-12-18T06:58:13;-3.60;99.90
61979;DHT22;47938;48.176;16.414;2022-12-18T07:00:39;-3.60;99.90
61979;DHT22;47938;48.176;16.414;2022-12-18T07:03:04;-3.60;99.90
61979;DHT22;47938;48.176;16.414;2022-12-18T07:05:30;-3.50;99.90
61979;DHT22;47938;48.176;16.414;2022-12-18T07:07:55;-3.50;99.90
61979;DHT22;47938;48.176;16.414;2022-12-18T07:10:21;-3.40;99.90
61979;DHT22;47938;48.176;16.414;2022-12-18T07:12:47;-3.40;99.90
61979;DHT22;47938;48.176;16.414;2022-12-18T07:15:13;-3.40;99.90
61979;DHT22;47938;48.176;16.414;2022-12-18T07:17:38;-3.40;99.90
61979;DHT22;47938;48.176;16.414;2022-12-18T07:20:04;-3.30;99.90
61979;DHT22;47938;48.176;16.414;2022-12-18T07:22:30;-3.30;99.90
61979;DHT22;47938;48.176;16.414;2022-12-18T07:24:56;-3.20;99.90
61979;DHT22;47938;48.176;16.414;2022-12-18T07:27:22;-3.10;99.90
61979;DHT22;47938;48.176;16.414;2022-12-18T07:29:48;-3.00;99.90
61979;DHT22;47938;48.176;16.414;2022-12-18T07:32:13;-3.00;99.90
61979;DHT22;47938;48.176;16.414;2022-12-18T07:34:39;-2.90;99.90
61979;DHT22;47938;48.176;16.414;2022-12-18T07:37:05;-2.80;99.90
61979;DHT22;47938;48.176;16.414;2022-12-18T07:39:30;-2.60;99.90
61979;DHT22;47938;48.176;16.414;2022-12-18T07:41:56;-2.50;99.90
61979;DHT22;47938;48.176;16.414;2022-12-18T07:44:22;-2.30;99.90
61979;DHT22;47938;48.176;16.414;2022-12-18T07:46:47;-2.10;99.90
61979;DHT22;47938;48.176;16.414;2022-12-18T07:49:13;-2.20;99.00
61979;DHT22;47938;48.176;16.414;2022-12-18T07:51:38;-2.30;98.50
61979;DHT22;47938;48.176;16.414;2022-12-18T07:54:04;-2.30;99.90
61979;DHT22;47938;48.176;16.414;2022-12-18T07:56:30;-2.20;99.90
61979;DHT22;47938;48.176;16.414;2022-12-18T07:58:56;-2.10;99.80
61979;DHT22;47938;48.176;16.414;2022-12-18T08:01:21;-2.10;98.20
61979;DHT22;47938;48.176;16.414;2022-12-18T08:03:47;-2.00;97.80
61979;DHT22;47938;48.176;16.414;2022-12-18T08:06:13;-2.00;95.90
61979;DHT22;47938;48.176;16.414;2022-12-18T08:08:38;-2.00;95.80
61979;DHT22;47938;48.176;16.414;2022-12-18T08:11:04;-2.00;94.90
61979;DHT22;47938;48.176;16.414;2022-12-18T08:13:29;-2.10;95.20
61979;DHT22;47938;48.176;16.414;2022-12-18T08:15:57;-2.00;95.50
61979;DHT22;47938;48.176;16.414;2022-12-18T08:18:23;-1.80;93.60
61979;DHT22;47938;48.176;16.414;2022-12-18T08:20:48;-1.80;96.50
61979;DHT22;47938;48.176;16.414;2022-12-18T08:23:14;-1.60;94.10
61979;DHT22;47938;48.176;16.414;2022-12-18T08:25:39;-1.40;93.70
61979;DHT22;47938;48.176;16.414;2022-12-18T08:28:05;-1.30;90.00
61979;DHT22;47938;48.176;16.414;2022-12-18T08:30:30;-1.60;93.40
61979;DHT22;47938;48.176;16.414;2022-12-18T08:32:56;-1.30;95.40
61979;DHT22;47938;48.176;16.414;2022-12-18T08:35:22;-1.40;91.20
61979;DHT22;47938;48.176;16.414;2022-12-18T08:37:47;-1.20;93.40
61979;DHT22;47938;48.176;16.414;2022-12-18T08:40:13;-1.00;90.00
61979;DHT22;47938;48.176;16.414;2022-12-18T08:42:38;-1.10;88.60
61979;DHT22;47938;48.176;16.414;2022-12-18T08:45:05;-1.00;90.20
61979;DHT22;47938;48.176;16.414;2022-12-18T08:47:31;-1.20;91.80
61979;DHT22;47938;48.176;16.414;2022-12-18T08:49:57;-1.20;89.10
61979;DHT22;47938;48.176;16.414;2022-12-18T08:52:22;-1.40;90.70
61979;DHT22;47938;48.176;16.414;2022-12-18T08:54:48;-1.50;91.70
61979;DHT22;47938;48.176;16.414;2022-12-18T08:57:13;-1.50;91.80
61979;DHT22;47938;48.176;16.414;2022-12-18T08:59:39;-1.50;91.30
61979;DHT22;47938;48.176;16.414;2022-12-18T09:02:05;-1.50;92.70
61979;DHT22;47938;48.176;16.414;2022-12-18T09:04:30;-1.30;92.00
61979;DHT22;47938;48.176;16.414;2022-12-18T09:06:56;-1.30;90.30
61979;DHT22;47938;48.176;16.414;2022-12-18T09:09:22;-1.40;90.50
61979;DHT22;47938;48.176;16.414;2022-12-18T09:11:47;-1.40;91.00
61979;DHT22;47938;48.176;16.414;2022-12-18T09:14:13;-1.40;90.40
61979;DHT22;47938;48.176;16.414;2022-12-18T09:16:38;-1.30;89.60
61979;DHT22;47938;48.176;16.414;2022-12-18T09:19:05;-1.20;91.10
61979;DHT22;47938;48.176;16.414;2022-12-18T09:21:33;-1.10;91.00
61979;DHT22;47938;48.176;16.414;2022-12-18T09:23:59;-1.00;86.70
61979;DHT22;47938;48.176;16.414;2022-12-18T09:26:25;-1.00;88.90
61979;DHT22;47938;48.176;16.414;2022-12-18T09:28:52;-1.20;87.50
61979;DHT22;47938;48.176;16.414;2022-12-18T09:31:20;-1.30;86.90
61979;DHT22;47938;48.176;16.414;2022-12-18T09:33:46;-1.30;89.20
61979;DHT22;47938;48.176;16.414;2022-12-18T09:36:14;-1.10;86.50
61979;DHT22;47938;48.176;16.414;2022-12-18T09:38:40;-1.10;83.80
61979;DHT22;47938;48.176;16.414;2022-12-18T09:44:03;-1.20;83.40
61979;DHT22;47938;48.176;16.414;2022-12-18T09:46:33;-0.90;82.10
61979;DHT22;47938;48.176;16.414;2022-12-18T09:49:05;-1.20;85.50
61979;DHT22;47938;48.176;16.414;2022-12-18T09:51:49;-1.20;83.30
61979;DHT22;47938;48.176;16.414;2022-12-18T09:54:20;-1.40;83.90
61979;DHT22;47938;48.176;16.414;2022-12-18T09:56:47;-1.40;85.30
61979;DHT22;47938;48.176;16.414;2022-12-18T09:59:25;-1.20;84.70
61979;DHT22;47938;48.176;16.414;2022-12-18T10:01:52;-1.20;82.00
61979;DHT22;47938;48.176;16.414;2022-12-18T10:04:18;-1.20;84.60
61979;DHT22;47938;48.176;16.414;2022-12-18T10:09:37;-1.10;79.10
61979;DHT22;47938;48.176;16.414;2022-12-18T10:12:47;-1.50;81.80
61979;DHT22;47938;48.176;16.414;2022-12-18T10:15:26;-1.50;86.30
61979;DHT22;47938;48.176;16.414;2022-12-18T10:18:36;-1.40;82.80
61979;DHT22;47938;48.176;16.414;2022-12-18T10:20:56;-1.20;84.10
61979;DHT22;47938;48.176;16.414;2022-12-18T10:23:43;-1.40;82.70
61979;DHT22;47938;48.176;16.414;2022-12-18T10:26:11;-1.30;86.70
61979;DHT22;47938;48.176;16.414;2022-12-18T10:28:39;-1.10;84.50
61979;DHT22;47938;48.176;16.414;2022-12-18T10:31:19;-1.00;81.70
61979;DHT22;47938;48.176;16.414;2022-12-18T10:33:45;-1.00;81.20
61979;DHT22;47938;48.176;16.414;2022-12-18T10:36:11;-1.10;83.20
61979;DHT22;47938;48.176;16.414;2022-12-18T10:38:37;-1.20;82.40
61979;DHT22;47938;48.176;16.414;2022-12-18T10:41:25;-1.00;81.20
61979;DHT22;47938;48.176;16.414;2022-12-18T10:44:11;-1.10;80.60
61979;DHT22;47938;48.176;16.414;2022-12-18T10:46:37;-1.40;82.20
61979;DHT22;47938;48.176;16.414;2022-12-18T10:49:03;-1.30;85.40
61979;DHT22;47938;48.176;16.414;2022-12-18T10:51:36;-1.20;83.40
61979;DHT22;47938;48.176;16.414;2022-12-18T10:54:13;-1.10;82.40
61979;DHT22;47938;48.176;16.414;2022-12-18T10:56:40;-1.10;81.00
61979;DHT22;47938;48.176;16.414;2022-12-18T10:59:11;-1.10;81.20
61979;DHT22;47938;48.176;16.414;2022-12-18T11:01:57;-1.40;85.50
61979;DHT22;47938;48.176;16.414;2022-12-18T11:04:24;-1.20;86.40
61979;DHT22;47938;48.176;16.414;2022-12-18T11:07:00;-1.10;85.00
61979;DHT22;47938;48.176;16.414;2022-12-18T11:09:31;-0.90;83.20
61979;DHT22;47938;48.176;16.414;2022-12-18T11:12:23;-0.90;81.10
61979;DHT22;47938;48.176;16.414;2022-12-18T11:14:49;-0.80;81.20
61979;DHT22;47938;48.176;16.414;2022-12-18T11:17:35;-1.50;84.10
61979;DHT22;47938;48.176;16.414;2022-12-18T11:20:23;-1.30;88.70
61979;DHT22;47938;48.176;16.414;2022-12-18T11:23:05;-1.10;84.50
61979;DHT22;47938;48.176;16.414;2022-12-18T11:25:32;-0.90;80.80
61979;DHT22;47938;48.176;16.414;2022-12-18T11:28:03;-1.30;82.50
61979;DHT22;47938;48.176;16.414;2022-12-18T11:30:36;-1.70;87.90
61979;DHT22;47938;48.176;16.414;2022-12-18T11:33:34;-1.60;88.10
61979;DHT22;47938;48.176;16.414;2022-12-18T11:36:02;-1.80;91.60
61979;DHT22;47938;48.176;16.414;2022-12-18T11:38:35;-1.70;90.70
61979;DHT22;47938;48.176;16.414;2022-12-18T11:43:47;-1.90;92.10
61979;DHT22;47938;48.176;16.414;2022-12-18T11:46:23;-1.60;91.80
61979;DHT22;47938;48.176;16.414;2022-12-18T11:48:54;-1.30;88.60
61979;DHT22;47938;48.176;16.414;2022-12-18T11:51:33;-1.00;85.20
61979;DHT22;47938;48.176;16.414;2022-12-18T11:54:01;-0.80;83.90
61979;DHT22;47938;48.176;16.414;2022-12-18T11:56:42;-0.90;80.90
61979;DHT22;47938;48.176;16.414;2022-12-18T12:12:37;-1.10;83.20
61979;DHT22;47938;48.176;16.414;2022-12-18T12:18:11;-1.10;86.20
61979;DHT22;47938;48.176;16.414;2022-12-18T12:21:05;-1.00;84.00
61979;DHT22;47938;48.176;16.414;2022-12-18T12:39:37;-1.70;90.90
61979;DHT22;47938;48.176;16.414;2022-12-18T12:44:57;-1.60;91.80
61979;DHT22;47938;48.176;16.414;2022-12-18T12:47:28;-1.80;91.10
61979;DHT22;47938;48.176;16.414;2022-12-18T12:49:57;-1.90;92.60
61979;DHT22;47938;48.176;16.414;2022-12-18T12:52:39;-1.70;93.10
61979;DHT22;47938;48.176;16.414;2022-12-18T12:55:16;-1.70;92.50
61979;DHT22;47938;48.176;16.414;2022-12-18T13:00:39;-1.70;92.80
61979;DHT22;47938;48.176;16.414;2022-12-18T13:03:15;-1.70;92.70
61979;DHT22;47938;48.176;16.414;2022-12-18T13:08:29;-1.70;92.80
61979;DHT22;47938;48.176;16.414;2022-12-18T13:10:59;-1.80;93.90
61979;DHT22;47938;48.176;16.414;2022-12-18T13:13:25;-1.70;94.70
61979;DHT22;47938;48.176;16.414;2022-12-18T13:16:11;-1.70;93.70
61979;DHT22;47938;48.176;16.414;2022-12-18T13:18:36;-1.80;92.50
61979;DHT22;47938;48.176;16.414;2022-12-18T13:21:14;-2.10;96.40
61979;DHT22;47938;48.176;16.414;2022-12-18T13:23:40;-2.00;98.00
61979;DHT22;47938;48.176;16.414;2022-12-18T13:34:25;-2.10;97.80
61979;DHT22;47938;48.176;16.414;2022-12-18T13:36:52;-2.10;99.90
61979;DHT22;47938;48.176;16.414;2022-12-18T13:41:49;-1.90;96.80
61979;DHT22;47938;48.176;16.414;2022-12-18T13:47:01;-2.00;98.10
61979;DHT22;47938;48.176;16.414;2022-12-18T13:49:41;-2.00;99.70
61979;DHT22;47938;48.176;16.414;2022-12-18T13:52:26;-1.90;98.00
61979;DHT22;47938;48.176;16.414;2022-12-18T13:54:56;-1.90;97.90
61979;DHT22;47938;48.176;16.414;2022-12-18T13:57:28;-2.10;99.90
61979;DHT22;47938;48.176;16.414;2022-12-18T13:59:54;-2.00;99.90
61979;DHT22;47938;48.176;16.414;2022-12-18T14:02:22;-1.90;99.00
61979;DHT22;47938;48.176;16.414;2022-12-18T14:04:49;-2.00;99.90
61979;DHT22;47938;48.176;16.414;2022-12-18T14:07:19;-2.30;99.90
61979;DHT22;47938;48.176;16.414;2022-12-18T14:09:51;-2.30;99.90
61979;DHT22;47938;48.176;16.414;2022-12-18T14:12:38;-2.40;99.90
61979;DHT22;47938;48.176;16.414;2022-12-18T14:15:05;-2.40;99.90
61979;DHT22;47938;48.176;16.414;2022-12-18T14:17:32;-2.40;99.90
61979;DHT22;47938;48.176;16.414;2022-12-18T14:19:57;-2.30;99.90
61979;DHT22;47938;48.176;16.414;2022-12-18T14:22:25;-2.20;99.90
61979;DHT22;47938;48.176;16.414;2022-12-18T14:25:21;-2.10;99.90
61979;DHT22;47938;48.176;16.414;2022-12-18T14:30:39;-2.30;99.90
61979;DHT22;47938;48.176;16.414;2022-12-18T14:33:10;-2.30;99.90
61979;DHT22;47938;48.176;16.414;2022-12-18T14:35:38;-2.30;99.90
61979;DHT22;47938;48.176;16.414;2022-12-18T14:38:21;-2.40;99.90
61979;DHT22;47938;48.176;16.414;2022-12-18T14:40:47;-2.40;99.90
61979;DHT22;47938;48.176;16.414;2022-12-18T14:43:20;-2.30;99.90
61979;DHT22;47938;48.176;16.414;2022-12-18T14:45:47;-2.20;99.90
61979;DHT22;47938;48.176;16.414;2022-12-18T14:48:42;-2.10;99.90
61979;DHT22;47938;48.176;16.414;2022-12-18T14:51:24;-2.10;99.90
61979;DHT22;47938;48.176;16.414;2022-12-18T14:54:05;-2.00;99.90
61979;DHT22;47938;48.176;16.414;2022-12-18T14:56:45;-2.10;99.90
61979;DHT22;47938;48.176;16.414;2022-12-18T14:59:44;-2.10;99.90
61979;DHT22;47938;48.176;16.414;2022-12-18T15:02:26;-2.10;99.90
61979;DHT22;47938;48.176;16.414;2022-12-18T15:05:16;-2.10;99.90
61979;DHT22;47938;48.176;16.414;2022-12-18T15:07:44;-2.00;99.90
61979;DHT22;47938;48.176;16.414;2022-12-18T15:10:13;-2.10;99.90
61979;DHT22;47938;48.176;16.414;2022-12-18T15:18:04;-2.20;99.90
61979;DHT22;47938;48.176;16.414;2022-12-18T15:20:32;-2.10;99.90
61979;DHT22;47938;48.176;16.414;2022-12-18T15:22:58;-2.10;99.90
61979;DHT22;47938;48.176;16.414;2022-12-18T15:25:35;-2.20;99.90
61979;DHT22;47938;48.176;16.414;2022-12-18T15:28:01;-2.30;99.90
61979;DHT22;47938;48.176;16.414;2022-12-18T15:30:28;-2.30;99.90
61979;DHT22;47938;48.176;16.414;2022-12-18T15:33:22;-2.30;99.90
61979;DHT22;47938;48.176;16.414;2022-12-18T15:35:59;-2.30;99.90
61979;DHT22;47938;48.176;16.414;2022-12-18T15:38:26;-2.20;99.90
61979;DHT22;47938;48.176;16.414;2022-12-18T15:40:53;-2.20;99.90
61979;DHT22;47938;48.176;16.414;2022-12-18T15:43:23;-2.30;99.90
61979;DHT22;47938;48.176;16.414;2022-12-18T15:45:51;-2.20;99.90
61979;DHT22;47938;48.176;16.414;2022-12-18T15:48:21;-2.20;99.90
61979;DHT22;47938;48.176;16.414;2022-12-18T15:50:52;-2.10;99.90
61979;DHT22;47938;48.176;16.414;2022-12-18T15:53:18;-2.20;99.90
61979;DHT22;47938;48.176;16.414;2022-12-18T15:55:44;-2.20;99.90
61979;DHT22;47938;48.176;16.414;2022-12-18T15:58:10;-2.10;99.90
61979;DHT22;47938;48.176;16.414;2022-12-18T16:00:40;-2.10;99.90
61979;DHT22;47938;48.176;16.414;2022-12-18T16:03:06;-2.10;99.90
61979;DHT22;47938;48.176;16.414;2022-12-18T16:05:32;-2.00;99.90
61979;DHT22;47938;48.176;16.414;2022-12-18T16:07:58;-1.90;99.90
61979;DHT22;47938;48.176;16.414;2022-12-18T16:10:25;-1.80;99.90
61979;DHT22;47938;48.176;16.414;2022-12-18T16:12:51;-1.80;99.90
61979;DHT22;47938;48.176;16.414;2022-12-18T16:15:19;-1.70;99.90
61979;DHT22;47938;48.176;16.414;2022-12-18T16:17:46;-1.80;99.90
61979;DHT22;47938;48.176;16.414;2022-12-18T16:20:22;-1.70;99.90
61979;DHT22;47938;48.176;16.414;2022-12-18T16:22:50;-1.70;99.90
61979;DHT22;47938;48.176;16.414;2022-12-18T16:25:17;-1.70;99.90
61979;DHT22;47938;48.176;16.414;2022-12-18T16:27:43;-1.60;99.90
61979;DHT22;47938;48.176;16.414;2022-12-18T16:30:17;-1.70;99.90
61979;DHT22;47938;48.176;16.414;2022-12-18T16:32:44;-1.60;99.90
61979;DHT22;47938;48.176;16.414;2022-12-18T16:35:14;-1.60;99.90
61979;DHT22;47938;48.176;16.414;2022-12-18T16:37:41;-1.60;99.90
61979;DHT22;47938;48.176;16.414;2022-12-18T16:40:12;-1.50;99.90
61979;DHT22;47938;48.176;16.414;2022-12-18T16:42:39;-1.50;99.90
61979;DHT22;47938;48.176;16.414;2022-12-18T16:45:07;-1.50;99.90
61979;DHT22;47938;48.176;16.414;2022-12-18T16:47:34;-1.50;99.90
61979;DHT22;47938;48.176;16.414;2022-12-18T16:50:00;-1.50;99.90
61979;DHT22;47938;48.176;16.414;2022-12-18T16:52:26;-1.50;99.90
61979;DHT22;47938;48.176;16.414;2022-12-18T16:54:52;-1.50;99.90
61979;DHT22;47938;48.176;16.414;2022-12-18T16:57:19;-1.50;99.90
61979;DHT22;47938;48.176;16.414;2022-12-18T16:59:46;-1.60;99.90
61979;DHT22;47938;48.176;16.414;2022-12-18T17:02:20;-1.50;99.90
61979;DHT22;47938;48.176;16.414;2022-12-18T17:04:47;-1.50;99.90
61979;DHT22;47938;48.176;16.414;2022-12-18T17:07:14;-1.50;99.90